Time;durP1;ratioP1;P1;durP2;ratioP2;P2;SDS_P1;SDS_P2;PMS_P1;PMS_P2;Temp;Humidity;BMP_temperature;BMP_pressure;BME280_temperature;BME280_humidity;BME280_pressure;Samples;Min_cycle;Max_cycle;Signal;HPM_P1;HPM_P2
2023/08/22 00:00:14;;;;;;;240.40;124.87;;;;;;;;;;5071605;28;20491;-54
2023/08/22 00:02:40;;;;;;;241.90;128.40;;;;;;;;;;5071812;28;20926;-54
2023/08/22 00:05:06;;;;;;;240.43;124.40;;;;;;;;;;5071765;28;20413;-54
2023/08/22 00:07:32;;;;;;;243.40;129.53;;;;;;;;;;5071640;28;20416;-54
2023/08/22 00:09:58;;;;;;;240.80;126.40;;;;;;;;;;5069940;28;20462;-54
2023/08/22 00:12:24;;;;;;;239.40;120.10;;;;;;;;;;5071514;28;20435;-54
2023/08/22 00:14:50;;;;;;;240.13;122.37;;;;;;;;;;5071568;28;20835;-55
2023/08/22 00:17:16;;;;;;;241.20;124.33;;;;;;;;;;5071625;28;20414;-54
2023/08/22 00:19:42;;;;;;;243.40;126.47;;;;;;;;;;5071438;28;20892;-54
2023/08/22 00:22:08;;;;;;;241.00;125.20;;;;;;;;;;5071570;28;20515;-53
2023/08/22 00:24:35;;;;;;;245.97;132.27;;;;;;;;;;5071330;28;20419;-54
2023/08/22 00:27:02;;;;;;;236.87;119.90;;;;;;;;;;5071583;28;20420;-54
2023/08/22 00:29:28;;;;;;;242.77;127.30;;;;;;;;;;5074476;28;20538;-54
2023/08/22 00:31:54;;;;;;;240.97;123.37;;;;;;;;;;5075258;28;20554;-54
2023/08/22 00:34:20;;;;;;;244.47;129.87;;;;;;;;;;5074351;28;20427;-54
2023/08/22 00:36:46;;;;;;;241.00;124.37;;;;;;;;;;5075564;28;20943;-54
2023/08/22 00:39:12;;;;;;;241.40;122.30;;;;;;;;;;5074133;28;20488;-54
2023/08/22 00:41:38;;;;;;;239.83;124.67;;;;;;;;;;5075086;28;20795;-54
2023/08/22 00:44:04;;;;;;;242.27;125.27;;;;;;;;;;5075292;28;20412;-54
2023/08/22 00:46:30;;;;;;;239.07;118.27;;;;;;;;;;5075335;28;20408;-54
2023/08/22 00:48:57;;;;;;;238.37;118.47;;;;;;;;;;5075253;28;20952;-54
2023/08/22 00:51:24;;;;;;;243.13;123.97;;;;;;;;;;5078662;28;20425;-54
2023/08/22 00:53:50;;;;;;;239.03;117.40;;;;;;;;;;5075045;28;20398;-54
2023/08/22 00:56:16;;;;;;;240.57;123.67;;;;;;;;;;5075044;28;20408;-54
2023/08/22 00:58:42;;;;;;;236.47;116.40;;;;;;;;;;5075086;28;20409;-54
2023/08/22 01:01:08;;;;;;;238.57;115.47;;;;;;;;;;5075186;28;20474;-54
2023/08/22 01:03:34;;;;;;;240.53;118.50;;;;;;;;;;5074455;28;20473;-54
2023/08/22 01:06:11;;;;;;;242.20;123.77;;;;;;;;;;5074607;28;20412;-54
2023/08/22 01:08:39;;;;;;;238.80;117.33;;;;;;;;;;5074959;28;20947;-54
2023/08/22 01:11:10;;;;;;;233.80;110.43;;;;;;;;;;5074706;28;20399;-54
2023/08/22 01:13:37;;;;;;;234.20;108.17;;;;;;;;;;5074903;28;20946;-51
2023/08/22 01:16:04;;;;;;;396.50;169.63;;;;;;;;;;5074955;28;20691;-54
2023/08/22 01:18:31;;;;;;;372.47;149.03;;;;;;;;;;5074787;28;20406;-53
2023/08/22 01:21:06;;;;;;;372.60;150.33;;;;;;;;;;5074916;28;20435;-54
2023/08/22 01:23:32;;;;;;;242.47;118.23;;;;;;;;;;5074657;28;20477;-54
2023/08/22 01:25:58;;;;;;;243.30;116.90;;;;;;;;;;5074705;28;20412;-54
2023/08/22 01:28:32;;;;;;;238.47;114.40;;;;;;;;;;5074567;28;20455;-54
2023/08/22 01:31:01;;;;;;;243.40;124.00;;;;;;;;;;5074401;28;20415;-54
2023/08/22 01:33:34;;;;;;;244.47;120.87;;;;;;;;;;5074517;28;20446;-54
2023/08/22 01:36:00;;;;;;;239.73;116.07;;;;;;;;;;5074669;28;20838;-54
2023/08/22 01:38:28;;;;;;;239.87;113.93;;;;;;;;;;5074735;28;20541;-54
2023/08/22 01:40:54;;;;;;;244.70;123.33;;;;;;;;;;5073110;28;20410;-55
2023/08/22 01:43:21;;;;;;;249.37;128.80;;;;;;;;;;5074403;28;20424;-54
2023/08/22 01:45:47;;;;;;;245.07;123.40;;;;;;;;;;5074210;28;20410;-54
2023/08/22 01:48:13;;;;;;;246.53;122.87;;;;;;;;;;5074300;28;20456;-54
2023/08/22 01:50:39;;;;;;;249.27;126.40;;;;;;;;;;5073932;28;20417;-53
2023/08/22 01:53:05;;;;;;;239.30;117.00;;;;;;;;;;5094266;28;20422;-54
2023/08/22 01:55:31;;;;;;;243.17;118.50;;;;;;;;;;5094428;28;20398;-54
2023/08/22 01:57:57;;;;;;;244.40;121.57;;;;;;;;;;5094432;28;20896;-54
2023/08/22 02:00:22;;;;;;;246.93;122.57;;;;;;;;;;5094067;28;20937;-54
2023/08/22 02:02:48;;;;;;;243.57;120.93;;;;;;;;;;5094427;28;20917;-55
2023/08/22 02:05:14;;;;;;;247.13;124.30;;;;;;;;;;5094265;28;20489;-54
2023/08/22 02:07:41;;;;;;;246.20;125.13;;;;;;;;;;5094121;28;20399;-54
2023/08/22 02:10:07;;;;;;;245.57;123.90;;;;;;;;;;5093960;28;20438;-54
2023/08/22 02:12:33;;;;;;;240.80;114.33;;;;;;;;;;5094496;28;20418;-54
2023/08/22 02:14:59;;;;;;;249.87;129.07;;;;;;;;;;5093889;28;20816;-54
2023/08/22 02:17:25;;;;;;;250.50;128.87;;;;;;;;;;5094193;28;20474;-54
2023/08/22 02:19:51;;;;;;;255.73;132.40;;;;;;;;;;5093775;28;20415;-54
2023/08/22 02:22:17;;;;;;;244.10;122.97;;;;;;;;;;5093941;28;20430;-55
2023/08/22 02:24:43;;;;;;;239.33;111.63;;;;;;;;;;5093826;28;20418;-54
2023/08/22 02:27:09;;;;;;;244.97;120.13;;;;;;;;;;5093828;28;20499;-54
2023/08/22 02:29:35;;;;;;;253.83;132.17;;;;;;;;;;5094047;28;20482;-54
2023/08/22 02:32:01;;;;;;;252.00;129.87;;;;;;;;;;5093490;28;20426;-55
2023/08/22 02:34:27;;;;;;;240.70;114.33;;;;;;;;;;5093807;28;20403;-54
2023/08/22 02:36:53;;;;;;;241.47;117.27;;;;;;;;;;5093655;28;20395;-54
2023/08/22 02:39:19;;;;;;;244.13;119.90;;;;;;;;;;5093626;28;20826;-55
2023/08/22 02:41:45;;;;;;;246.23;128.70;;;;;;;;;;5093319;28;20470;-54
2023/08/22 02:44:12;;;;;;;241.90;124.60;;;;;;;;;;5093276;28;21006;-54
2023/08/22 02:46:38;;;;;;;247.03;124.23;;;;;;;;;;5093483;28;20460;-55
2023/08/22 02:49:04;;;;;;;249.67;128.07;;;;;;;;;;5093502;28;20864;-54
2023/08/22 02:51:30;;;;;;;252.77;129.27;;;;;;;;;;5085651;28;20431;-54
2023/08/22 02:53:56;;;;;;;243.35;120.80;;;;;;;;;;5073073;28;20394;-54
2023/08/22 02:56:22;;;;;;;259.73;146.23;;;;;;;;;;5072952;28;20637;-55
2023/08/22 02:58:48;;;;;;;255.00;132.93;;;;;;;;;;5072918;28;20402;-55
2023/08/22 03:01:16;;;;;;;246.03;123.60;;;;;;;;;;5072747;28;20399;-54
2023/08/22 03:03:43;;;;;;;266.57;152.23;;;;;;;;;;5072740;28;20419;-55
2023/08/22 03:06:09;;;;;;;256.10;140.50;;;;;;;;;;5072887;28;20396;-55
2023/08/22 03:08:35;;;;;;;253.23;132.80;;;;;;;;;;5072719;28;20537;-55
2023/08/22 03:11:01;;;;;;;249.23;126.07;;;;;;;;;;5072457;28;20486;-54
2023/08/22 03:13:28;;;;;;;253.70;134.50;;;;;;;;;;5072508;28;20422;-54
2023/08/22 03:15:54;;;;;;;256.90;134.63;;;;;;;;;;5072594;28;20412;-54
2023/08/22 03:18:20;;;;;;;260.10;141.07;;;;;;;;;;5072571;28;20406;-54
2023/08/22 03:20:46;;;;;;;252.90;127.80;;;;;;;;;;5072345;28;20407;-54
2023/08/22 03:23:12;;;;;;;258.63;143.93;;;;;;;;;;5072416;28;20419;-54
2023/08/22 03:25:38;;;;;;;260.70;146.27;;;;;;;;;;5072309;28;20487;-54
2023/08/22 03:28:04;;;;;;;255.13;137.80;;;;;;;;;;5072398;28;20279;-55
2023/08/22 03:30:30;;;;;;;263.70;154.00;;;;;;;;;;5072092;28;20403;-55
2023/08/22 03:32:56;;;;;;;253.00;127.70;;;;;;;;;;5072253;28;20498;-54
2023/08/22 03:35:22;;;;;;;253.67;134.00;;;;;;;;;;5072870;28;20395;-55
2023/08/22 03:37:48;;;;;;;255.13;133.53;;;;;;;;;;5072220;28;20399;-54
2023/08/22 03:40:14;;;;;;;257.30;140.20;;;;;;;;;;5072017;28;20414;-54
2023/08/22 03:42:40;;;;;;;251.63;132.53;;;;;;;;;;5072011;28;20423;-54
2023/08/22 03:45:07;;;;;;;267.20;164.10;;;;;;;;;;5072154;28;20767;-54
2023/08/22 03:47:33;;;;;;;247.43;124.50;;;;;;;;;;5072227;28;20937;-54
2023/08/22 03:49:59;;;;;;;261.43;148.13;;;;;;;;;;5071652;28;20612;-55
2023/08/22 03:52:25;;;;;;;256.30;141.03;;;;;;;;;;5086445;28;20426;-55
2023/08/22 03:54:51;;;;;;;260.33;142.00;;;;;;;;;;5092050;28;20452;-55
2023/08/22 03:57:17;;;;;;;254.53;139.30;;;;;;;;;;5092321;28;20399;-55
2023/08/22 03:59:43;;;;;;;262.60;151.43;;;;;;;;;;5091995;28;20495;-55
2023/08/22 04:02:09;;;;;;;258.90;139.57;;;;;;;;;;5091877;28;20409;-55
2023/08/22 04:04:35;;;;;;;343.37;184.37;;;;;;;;;;5091653;28;20398;-55
2023/08/22 04:07:01;;;;;;;273.80;144.03;;;;;;;;;;5092040;28;20412;-54
2023/08/22 04:09:27;;;;;;;278.50;150.27;;;;;;;;;;5091753;28;20484;-54
2023/08/22 04:11:54;;;;;;;270.07;139.40;;;;;;;;;;5091684;28;20444;-55
2023/08/22 04:14:20;;;;;;;282.97;158.47;;;;;;;;;;5091964;28;20408;-55
2023/08/22 04:16:46;;;;;;;278.00;144.37;;;;;;;;;;5091963;28;20480;-55
2023/08/22 04:19:12;;;;;;;272.70;142.52;;;;;;;;;;5091899;28;20414;-54
2023/08/22 04:21:38;;;;;;;272.77;141.80;;;;;;;;;;5091621;28;20175;-54
2023/08/22 04:24:04;;;;;;;286.80;159.57;;;;;;;;;;5091721;28;20470;-55
2023/08/22 04:26:30;;;;;;;282.05;149.63;;;;;;;;;;5091907;28;20490;-54
2023/08/22 04:28:56;;;;;;;282.93;177.13;;;;;;;;;;5091804;28;20248;-54
2023/08/22 04:31:22;;;;;;;268.93;144.93;;;;;;;;;;5091500;28;20401;-54
2023/08/22 04:33:48;;;;;;;267.80;151.87;;;;;;;;;;5091715;28;20400;-55
2023/08/22 04:36:14;;;;;;;268.53;146.60;;;;;;;;;;5091846;28;20443;-55
2023/08/22 04:38:40;;;;;;;262.87;136.97;;;;;;;;;;5091662;28;20408;-54
2023/08/22 04:41:06;;;;;;;263.00;135.90;;;;;;;;;;5091486;28;20413;-55
2023/08/22 04:43:32;;;;;;;262.63;138.00;;;;;;;;;;5091551;28;20547;-55
2023/08/22 04:45:58;;;;;;;272.00;160.00;;;;;;;;;;5072878;28;20435;-54
2023/08/22 04:48:24;;;;;;;265.43;140.50;;;;;;;;;;5071192;28;20450;-54
2023/08/22 04:50:50;;;;;;;262.73;134.33;;;;;;;;;;5070926;28;20422;-54
2023/08/22 04:53:16;;;;;;;257.87;127.50;;;;;;;;;;5070941;28;20434;-54
2023/08/22 04:55:42;;;;;;;263.53;138.10;;;;;;;;;;5071072;28;20962;-54
2023/08/22 04:58:08;;;;;;;270.73;154.97;;;;;;;;;;5071276;28;20927;-54
2023/08/22 05:00:34;;;;;;;261.43;139.23;;;;;;;;;;5070902;28;20538;-52
2023/08/22 05:03:00;;;;;;;263.50;140.60;;;;;;;;;;5075916;28;20457;-54
2023/08/22 05:05:26;;;;;;;255.20;130.97;;;;;;;;;;5072823;28;20415;-54
2023/08/22 05:07:52;;;;;;;265.50;149.93;;;;;;;;;;5071363;28;20416;-54
2023/08/22 05:10:18;;;;;;;259.20;133.10;;;;;;;;;;5070711;28;20172;-54
2023/08/22 05:12:44;;;;;;;255.97;131.53;;;;;;;;;;5071013;28;20453;-54
2023/08/22 05:15:10;;;;;;;261.33;143.47;;;;;;;;;;5073425;28;20447;-55
2023/08/22 05:17:37;;;;;;;265.20;151.82;;;;;;;;;;5074730;28;20410;-55
2023/08/22 05:20:06;;;;;;;268.50;156.13;;;;;;;;;;5074481;28;20174;-54
2023/08/22 05:22:32;;;;;;;264.33;142.37;;;;;;;;;;5074418;28;20439;-54
2023/08/22 05:24:58;;;;;;;259.37;137.37;;;;;;;;;;5074395;28;20486;-55
2023/08/22 05:27:24;;;;;;;272.35;158.25;;;;;;;;;;5074722;28;20407;-54
2023/08/22 05:29:50;;;;;;;270.60;155.37;;;;;;;;;;5074214;28;20634;-54
2023/08/22 05:32:16;;;;;;;280.93;186.63;;;;;;;;;;5074309;28;20431;-55
2023/08/22 05:34:42;;;;;;;248.30;132.33;;;;;;;;;;5074405;28;20406;-54
2023/08/22 05:37:08;;;;;;;261.53;159.63;;;;;;;;;;5074349;28;20399;-54
2023/08/22 05:39:34;;;;;;;257.63;147.27;;;;;;;;;;5074208;28;20451;-54
2023/08/22 05:42:00;;;;;;;260.77;152.03;;;;;;;;;;5074146;28;20514;-54
2023/08/22 05:44:26;;;;;;;243.33;127.27;;;;;;;;;;5074256;28;20490;-54
2023/08/22 05:46:52;;;;;;;244.40;128.63;;;;;;;;;;5074213;28;20420;-54
2023/08/22 05:49:18;;;;;;;241.00;121.10;;;;;;;;;;5074091;28;20464;-54
2023/08/22 05:51:44;;;;;;;246.17;132.03;;;;;;;;;;5073673;28;20594;-54
2023/08/22 05:54:10;;;;;;;243.07;123.97;;;;;;;;;;5074082;28;20407;-55
2023/08/22 05:56:36;;;;;;;245.68;130.98;;;;;;;;;;5073982;28;20422;-54
2023/08/22 05:59:02;;;;;;;247.77;136.73;;;;;;;;;;5074257;28;20249;-54
2023/08/22 06:01:29;;;;;;;252.17;134.03;;;;;;;;;;5073602;28;20491;-53
2023/08/22 06:03:54;;;;;;;253.23;135.13;;;;;;;;;;5073718;28;20462;-53
2023/08/22 06:06:20;;;;;;;246.57;128.00;;;;;;;;;;5073287;28;20411;-55
2023/08/22 06:08:46;;;;;;;254.33;140.03;;;;;;;;;;5073139;28;20466;-54
2023/08/22 06:11:12;;;;;;;252.73;133.50;;;;;;;;;;5073035;28;20903;-54
2023/08/22 06:13:38;;;;;;;257.13;149.83;;;;;;;;;;5073228;28;20800;-54
2023/08/22 06:16:04;;;;;;;260.37;148.57;;;;;;;;;;5073104;28;20423;-54
2023/08/22 06:18:30;;;;;;;248.07;126.90;;;;;;;;;;5073050;28;20761;-55
2023/08/22 06:20:59;;;;;;;258.80;144.40;;;;;;;;;;5072664;28;20781;-53
2023/08/22 06:23:26;;;;;;;257.83;146.57;;;;;;;;;;5072899;28;20445;-54
2023/08/22 06:25:52;;;;;;;252.57;134.40;;;;;;;;;;5072155;28;20423;-54
2023/08/22 06:28:18;;;;;;;256.20;146.00;;;;;;;;;;5072874;28;20494;-54
2023/08/22 06:30:44;;;;;;;255.20;143.20;;;;;;;;;;5072669;28;20428;-54
2023/08/22 06:33:10;;;;;;;257.77;143.37;;;;;;;;;;5069295;28;20459;-54
2023/08/22 06:35:36;;;;;;;268.43;167.73;;;;;;;;;;5072516;28;20437;-55
2023/08/22 06:38:02;;;;;;;253.97;138.30;;;;;;;;;;5072668;28;20412;-54
2023/08/22 06:40:28;;;;;;;260.20;147.40;;;;;;;;;;5072749;28;20426;-54
2023/08/22 06:42:54;;;;;;;258.43;147.00;;;;;;;;;;5071274;28;20950;-54
2023/08/22 06:45:20;;;;;;;255.87;144.63;;;;;;;;;;5071090;28;20816;-54
2023/08/22 06:47:46;;;;;;;261.70;151.17;;;;;;;;;;5072248;28;20425;-55
2023/08/22 06:50:12;;;;;;;268.67;162.60;;;;;;;;;;5071338;28;20456;-55
2023/08/22 06:52:38;;;;;;;257.60;151.00;;;;;;;;;;5072679;28;20924;-54
2023/08/22 06:55:05;;;;;;;261.00;154.10;;;;;;;;;;5072568;28;20418;-53
2023/08/22 06:57:31;;;;;;;258.97;153.87;;;;;;;;;;5072774;28;20406;-54
2023/08/22 06:59:57;;;;;;;270.80;179.83;;;;;;;;;;5072574;28;20405;-54
2023/08/22 07:02:23;;;;;;;270.37;181.00;;;;;;;;;;5072512;28;20953;-54
2023/08/22 07:04:49;;;;;;;266.20;170.10;;;;;;;;;;5072557;28;20409;-54
2023/08/22 07:07:15;;;;;;;267.70;159.00;;;;;;;;;;5072507;28;20423;-54
2023/08/22 07:09:41;;;;;;;264.37;155.80;;;;;;;;;;5072632;28;20610;-54
2023/08/22 07:12:07;;;;;;;258.57;148.40;;;;;;;;;;5072420;28;20424;-54
2023/08/22 07:14:35;;;;;;;291.53;171.50;;;;;;;;;;5072418;28;20411;-54
2023/08/22 07:17:01;;;;;;;254.67;138.37;;;;;;;;;;5072278;28;20924;-54
2023/08/22 07:19:27;;;;;;;257.20;145.47;;;;;;;;;;5072354;28;20418;-54
2023/08/22 07:21:53;;;;;;;261.30;153.67;;;;;;;;;;5072073;28;20531;-54
2023/08/22 07:24:19;;;;;;;259.77;146.63;;;;;;;;;;5072924;28;20415;-50
2023/08/22 07:26:45;;;;;;;254.77;143.00;;;;;;;;;;5072469;28;20895;-52
2023/08/22 07:29:11;;;;;;;254.80;144.27;;;;;;;;;;5072395;28;20489;-49
2023/08/22 07:31:37;;;;;;;261.90;158.27;;;;;;;;;;5071863;28;20450;-51
2023/08/22 07:34:03;;;;;;;257.27;152.40;;;;;;;;;;5072598;28;20433;-51
2023/08/22 07:36:29;;;;;;;250.80;141.67;;;;;;;;;;5072354;28;20469;-50
2023/08/22 07:38:56;;;;;;;262.20;156.83;;;;;;;;;;5072238;28;20436;-52
2023/08/22 07:41:22;;;;;;;254.33;146.67;;;;;;;;;;5072025;28;20396;-51
2023/08/22 07:43:48;;;;;;;264.20;161.53;;;;;;;;;;5072190;28;20555;-51
2023/08/22 07:46:14;;;;;;;258.33;150.13;;;;;;;;;;5072056;28;20400;-51
2023/08/22 07:48:40;;;;;;;266.03;167.23;;;;;;;;;;5072120;28;20452;-51
2023/08/22 07:51:06;;;;;;;263.53;159.23;;;;;;;;;;5071624;28;20422;-52
2023/08/22 07:53:32;;;;;;;268.57;165.03;;;;;;;;;;5072062;28;20455;-54
2023/08/22 07:55:58;;;;;;;279.90;174.90;;;;;;;;;;5072097;28;20400;-51
2023/08/22 07:58:24;;;;;;;284.80;190.63;;;;;;;;;;5072144;28;20817;-50
2023/08/22 08:00:50;;;;;;;284.30;188.50;;;;;;;;;;5071599;28;20446;-50
2023/08/22 08:03:16;;;;;;;284.07;187.73;;;;;;;;;;5071888;28;20428;-50
2023/08/22 08:05:42;;;;;;;286.40;198.30;;;;;;;;;;5071864;28;20412;-50
2023/08/22 08:08:08;;;;;;;289.00;204.20;;;;;;;;;;5071942;28;20408;-50
2023/08/22 08:10:36;;;;;;;293.63;213.60;;;;;;;;;;5071669;28;20897;-51
2023/08/22 08:13:02;;;;;;;297.97;213.93;;;;;;;;;;5069381;28;20438;-51
2023/08/22 08:15:28;;;;;;;287.73;203.67;;;;;;;;;;5071364;28;20408;-52
2023/08/22 08:17:54;;;;;;;294.67;219.70;;;;;;;;;;5071620;28;20411;-53
2023/08/22 08:20:20;;;;;;;290.90;213.80;;;;;;;;;;5074532;28;20424;-50
2023/08/22 08:22:46;;;;;;;290.70;215.83;;;;;;;;;;5071482;28;20573;-51
2023/08/22 08:25:12;;;;;;;292.57;213.13;;;;;;;;;;5071411;28;20477;-51
2023/08/22 08:27:39;;;;;;;295.67;229.90;;;;;;;;;;5071516;28;20892;-50
2023/08/22 08:30:05;;;;;;;312.37;218.93;;;;;;;;;;5068074;28;20479;-50
2023/08/22 08:32:31;;;;;;;289.97;210.57;;;;;;;;;;5071144;28;20793;-53
2023/08/22 08:34:57;;;;;;;287.73;203.87;;;;;;;;;;5071256;28;20407;-51
2023/08/22 08:37:23;;;;;;;289.40;217.53;;;;;;;;;;5071150;28;20412;-52
2023/08/22 08:39:49;;;;;;;292.00;210.13;;;;;;;;;;5071183;28;20705;-50
2023/08/22 08:42:16;;;;;;;281.67;197.10;;;;;;;;;;5071505;28;20439;-50
2023/08/22 08:44:42;;;;;;;291.60;218.07;;;;;;;;;;5071511;28;20408;-50
2023/08/22 08:47:09;;;;;;;286.97;203.47;;;;;;;;;;5071486;28;20760;-50
2023/08/22 08:49:35;;;;;;;288.03;206.27;;;;;;;;;;5072816;28;20459;-54
2023/08/22 08:52:05;;;;;;;286.40;207.60;;;;;;;;;;5075032;28;20439;-52
2023/08/22 08:54:32;;;;;;;285.03;202.63;;;;;;;;;;5075364;28;20399;-49
2023/08/22 08:56:59;;;;;;;284.60;205.10;;;;;;;;;;5075291;28;20914;-49
2023/08/22 08:59:25;;;;;;;281.60;201.00;;;;;;;;;;5075220;28;20495;-50
2023/08/22 09:01:51;;;;;;;272.17;180.13;;;;;;;;;;5075017;28;20416;-49
2023/08/22 09:04:18;;;;;;;276.77;187.10;;;;;;;;;;5075075;28;20400;-50
2023/08/22 09:06:45;;;;;;;265.57;168.70;;;;;;;;;;5075165;28;20400;-50
2023/08/22 09:09:12;;;;;;;267.40;167.17;;;;;;;;;;5074718;28;20940;-51
2023/08/22 09:11:42;;;;;;;265.47;163.37;;;;;;;;;;5072507;28;20465;-50
2023/08/22 09:14:09;;;;;;;260.90;163.47;;;;;;;;;;5074890;28;20396;-49
2023/08/22 09:16:34;;;;;;;257.53;148.63;;;;;;;;;;5074061;28;20397;-49
2023/08/22 09:19:00;;;;;;;259.30;158.43;;;;;;;;;;5074868;28;20400;-49
2023/08/22 09:21:27;;;;;;;258.80;148.90;;;;;;;;;;5074558;28;20400;-49
2023/08/22 09:23:53;;;;;;;307.87;192.87;;;;;;;;;;5074578;28;20491;-50
2023/08/22 09:26:22;;;;;;;250.37;154.53;;;;;;;;;;5074654;28;20439;-50
2023/08/22 09:28:48;;;;;;;246.70;148.70;;;;;;;;;;5074837;28;20484;-49
2023/08/22 09:31:21;;;;;;;243.93;146.07;;;;;;;;;;5074407;28;20405;-52
2023/08/22 09:33:48;;;;;;;248.90;153.17;;;;;;;;;;5074554;28;20400;-50
2023/08/22 09:36:19;;;;;;;244.73;145.10;;;;;;;;;;5074561;28;20489;-50
2023/08/22 09:38:51;;;;;;;247.77;145.83;;;;;;;;;;5074473;28;20404;-49
2023/08/22 09:41:22;;;;;;;246.43;146.13;;;;;;;;;;5074403;28;20409;-51
2023/08/22 09:43:48;;;;;;;244.33;143.60;;;;;;;;;;5074424;28;20397;-51
2023/08/22 09:46:15;;;;;;;251.17;157.63;;;;;;;;;;5074383;28;20487;-50
2023/08/22 09:48:43;;;;;;;253.80;162.43;;;;;;;;;;5074300;28;20531;-49
2023/08/22 09:51:10;;;;;;;257.83;173.37;;;;;;;;;;5077778;28;20485;-50
2023/08/22 09:53:36;;;;;;;258.70;171.23;;;;;;;;;;5094248;28;20428;-51
2023/08/22 09:56:02;;;;;;;264.30;186.80;;;;;;;;;;5094370;28;20453;-50
2023/08/22 09:58:29;;;;;;;260.60;188.83;;;;;;;;;;5094467;28;20404;-51
2023/08/22 10:00:56;;;;;;;252.83;171.13;;;;;;;;;;5093003;28;20400;-53
2023/08/22 10:03:22;;;;;;;255.67;175.60;;;;;;;;;;5094203;28;20946;-50
2023/08/22 10:05:50;;;;;;;267.33;194.43;;;;;;;;;;5093971;28;20392;-50
2023/08/22 10:08:16;;;;;;;257.83;175.37;;;;;;;;;;5094381;28;20422;-51
2023/08/22 10:10:43;;;;;;;259.03;181.73;;;;;;;;;;5094036;28;20900;-52
2023/08/22 10:13:09;;;;;;;255.27;185.17;;;;;;;;;;5094270;28;20419;-49
2023/08/22 10:15:36;;;;;;;268.40;218.87;;;;;;;;;;5094011;28;20399;-50
2023/08/22 10:18:03;;;;;;;268.37;210.60;;;;;;;;;;5070237;28;20440;-50
2023/08/22 10:20:29;;;;;;;262.33;203.43;;;;;;;;;;5069821;28;20416;-53
2023/08/22 10:22:55;;;;;;;258.77;194.13;;;;;;;;;;5073739;28;20452;-50
2023/08/22 10:25:41;;;;;;;262.90;207.47;;;;;;;;;;5073709;28;20439;-50
2023/08/22 10:28:07;;;;;;;252.37;191.80;;;;;;;;;;5073568;28;20481;-50
2023/08/22 10:30:33;;;;;;;248.17;183.10;;;;;;;;;;5073154;28;20400;-50
2023/08/22 10:33:06;;;;;;;246.63;174.63;;;;;;;;;;5073234;28;20417;-51
2023/08/22 10:35:32;;;;;;;240.17;165.80;;;;;;;;;;5073450;28;20428;-51
2023/08/22 10:37:58;;;;;;;237.70;159.23;;;;;;;;;;5073384;28;20408;-50
2023/08/22 10:40:28;;;;;;;231.70;141.13;;;;;;;;;;5073459;28;20872;-50
2023/08/22 10:43:07;;;;;;;230.20;139.57;;;;;;;;;;5073221;28;20796;-50
2023/08/22 10:45:37;;;;;;;226.40;132.53;;;;;;;;;;5073128;28;20400;-52
2023/08/22 10:48:10;;;;;;;220.67;121.40;;;;;;;;;;5073159;28;20407;-50
2023/08/22 10:50:36;;;;;;;219.90;118.63;;;;;;;;;;5072753;28;20420;-50
2023/08/22 10:53:21;;;;;;;221.57;122.37;;;;;;;;;;5092474;28;20945;-49
2023/08/22 10:55:48;;;;;;;223.47;121.50;;;;;;;;;;5093135;28;20767;-49
2023/08/22 10:58:36;;;;;;;222.37;122.13;;;;;;;;;;5093361;28;20494;-50
2023/08/22 11:01:06;;;;;;;218.33;117.73;;;;;;;;;;5092919;28;20474;-52
2023/08/22 11:03:32;;;;;;;223.37;123.37;;;;;;;;;;5093024;28;20455;-49
2023/08/22 11:05:58;;;;;;;221.83;123.67;;;;;;;;;;5092968;28;20447;-51
2023/08/22 11:08:24;;;;;;;219.47;119.93;;;;;;;;;;5092725;28;20446;-51
2023/08/22 11:10:51;;;;;;;221.03;121.17;;;;;;;;;;5092813;28;20441;-50
2023/08/22 11:13:19;;;;;;;223.47;125.57;;;;;;;;;;5092755;28;20708;-51
2023/08/22 11:15:49;;;;;;;221.77;122.80;;;;;;;;;;5092688;28;20391;-50
2023/08/22 11:18:15;;;;;;;222.40;114.47;;;;;;;;;;5092846;28;20403;-49
2023/08/22 11:20:42;;;;;;;222.70;114.17;;;;;;;;;;5092548;28;20501;-51
2023/08/22 11:23:08;;;;;;;221.43;111.90;;;;;;;;;;5092779;28;20458;-50
2023/08/22 11:25:37;;;;;;;222.53;115.10;;;;;;;;;;5082695;28;20444;-52
2023/08/22 11:28:03;;;;;;;221.43;113.73;;;;;;;;;;5072434;28;20400;-52
2023/08/22 11:30:29;;;;;;;221.63;111.87;;;;;;;;;;5072040;28;20396;-51
2023/08/22 11:32:55;;;;;;;222.73;113.83;;;;;;;;;;5072291;28;20431;-52
2023/08/22 11:35:21;;;;;;;225.37;119.93;;;;;;;;;;5072026;28;20743;-51
2023/08/22 11:37:47;;;;;;;222.13;115.67;;;;;;;;;;5072261;28;20915;-50
2023/08/22 11:40:14;;;;;;;225.00;118.03;;;;;;;;;;5072088;28;20392;-50
2023/08/22 11:42:40;;;;;;;222.03;114.10;;;;;;;;;;5072058;28;20420;-52
2023/08/22 11:45:08;;;;;;;223.73;118.40;;;;;;;;;;5072138;28;20405;-52
2023/08/22 11:47:44;;;;;;;223.33;117.37;;;;;;;;;;5071958;28;20424;-51
2023/08/22 11:50:14;;;;;;;222.63;118.57;;;;;;;;;;5071696;28;20456;-50
2023/08/22 11:52:44;;;;;;;227.60;127.50;;;;;;;;;;5088314;28;20427;-50
2023/08/22 11:55:10;;;;;;;225.63;119.53;;;;;;;;;;5090513;28;20405;-50
2023/08/22 11:57:39;;;;;;;230.33;125.13;;;;;;;;;;5090919;28;20392;-51
2023/08/22 12:00:09;;;;;;;226.20;123.10;;;;;;;;;;5091040;28;20408;-52
2023/08/22 12:02:35;;;;;;;223.23;116.40;;;;;;;;;;5090662;28;20427;-50
2023/08/22 12:05:01;;;;;;;225.63;123.10;;;;;;;;;;5092274;28;20407;-50
2023/08/22 12:07:27;;;;;;;225.63;122.10;;;;;;;;;;5091970;28;20403;-50
2023/08/22 12:10:07;;;;;;;229.47;124.47;;;;;;;;;;5091807;28;20951;-51
2023/08/22 12:12:33;;;;;;;228.00;130.93;;;;;;;;;;5082438;28;20832;-52
2023/08/22 12:14:59;;;;;;;234.83;138.20;;;;;;;;;;5071605;28;20457;-50
2023/08/22 12:17:25;;;;;;;227.50;126.87;;;;;;;;;;5071801;28;20803;-51
2023/08/22 12:19:51;;;;;;;228.60;127.03;;;;;;;;;;5071728;28;20488;-50
2023/08/22 12:22:17;;;;;;;226.53;125.80;;;;;;;;;;5071625;28;20949;-51
2023/08/22 12:24:44;;;;;;;225.93;123.80;;;;;;;;;;5071286;28;20911;-51
2023/08/22 12:27:10;;;;;;;234.47;140.57;;;;;;;;;;5071651;28;20454;-52
2023/08/22 12:29:36;;;;;;;229.67;127.33;;;;;;;;;;5071192;28;20463;-53
2023/08/22 12:32:02;;;;;;;235.43;143.03;;;;;;;;;;5071523;28;20424;-53
2023/08/22 12:34:28;;;;;;;236.90;142.53;;;;;;;;;;5071514;28;20392;-51
2023/08/22 12:36:54;;;;;;;237.73;145.27;;;;;;;;;;5071544;28;20396;-51
2023/08/22 12:39:20;;;;;;;236.37;141.70;;;;;;;;;;5071606;28;20404;-50
2023/08/22 12:41:46;;;;;;;266.90;183.73;;;;;;;;;;5071213;28;20424;-50
2023/08/22 12:44:12;;;;;;;249.27;157.17;;;;;;;;;;5071375;28;20862;-51
2023/08/22 12:46:38;;;;;;;247.03;154.43;;;;;;;;;;5071586;28;20404;-52
2023/08/22 12:49:04;;;;;;;242.07;145.43;;;;;;;;;;5071402;28;20463;-52
2023/08/22 12:51:30;;;;;;;250.27;162.67;;;;;;;;;;5076519;28;20423;-52
2023/08/22 12:53:56;;;;;;;242.80;151.10;;;;;;;;;;5091455;28;20445;-51
2023/08/22 12:56:26;;;;;;;243.07;150.30;;;;;;;;;;5091683;28;20392;-51
2023/08/22 12:58:52;;;;;;;250.53;167.63;;;;;;;;;;5091532;28;20438;-51
2023/08/22 13:01:18;;;;;;;249.37;157.30;;;;;;;;;;5080619;28;20429;-52
2023/08/22 13:03:45;;;;;;;244.67;153.20;;;;;;;;;;5065299;28;20809;-51
2023/08/22 13:06:10;;;;;;;246.67;159.40;;;;;;;;;;5066673;28;20431;-50
2023/08/22 13:08:36;;;;;;;240.90;145.77;;;;;;;;;;5067380;28;20470;-51
2023/08/22 13:11:02;;;;;;;243.30;150.43;;;;;;;;;;5065358;28;20425;-52
2023/08/22 13:13:29;;;;;;;238.57;138.43;;;;;;;;;;5064524;28;20441;-52
2023/08/22 13:15:55;;;;;;;239.50;146.63;;;;;;;;;;5067711;28;20427;-52
2023/08/22 13:18:20;;;;;;;252.67;159.63;;;;;;;;;;5056957;28;20425;-52
2023/08/22 13:20:46;;;;;;;232.47;135.43;;;;;;;;;;5062561;28;20417;-50
2023/08/22 13:23:12;;;;;;;225.83;121.40;;;;;;;;;;5055725;28;20514;-50
2023/08/22 13:25:40;;;;;;;227.50;124.43;;;;;;;;;;5069250;28;20440;-50
2023/08/22 13:28:07;;;;;;;222.00;117.60;;;;;;;;;;5062494;28;20432;-50
2023/08/22 13:30:33;;;;;;;222.90;114.93;;;;;;;;;;5066950;28;20404;-50
2023/08/22 13:32:59;;;;;;;226.93;121.37;;;;;;;;;;5069577;28;20912;-51
2023/08/22 13:35:26;;;;;;;225.37;121.73;;;;;;;;;;5068308;28;20519;-50
2023/08/22 13:37:52;;;;;;;223.27;117.73;;;;;;;;;;5074464;28;20432;-53
2023/08/22 13:40:18;;;;;;;217.47;104.63;;;;;;;;;;5074254;28;20429;-51
2023/08/22 13:42:44;;;;;;;221.50;112.03;;;;;;;;;;5074456;28;20460;-50
2023/08/22 13:45:10;;;;;;;221.93;111.47;;;;;;;;;;5074336;28;20412;-51
2023/08/22 13:47:38;;;;;;;226.90;121.67;;;;;;;;;;5062716;28;20423;-51